Hoppa till innehåll

METAR väder och rapporter - ESGG

Nedan listas information från vald flygplats. Andra METARs finns längre ned på sidan. Kontakta oss om någon saknas eller skriv in egen ICAO-kod.

Andra intressanta METARs

Klicka på önskad rubrik nedan för att visa nuvarande väder för den platsen.

Avstånd från stationen: NO 27kmESGG - Göteborg (Landvetter)
Uppdaterad: 2022-01-28 02:20
 Vind från NNV
Vind: NNV 20 km/h
Temperatur: 3°C
Vindavkylning: -2°C
Daggpunkt: -4°C
Luftfuktighet: 60%
Barometer: 1007 hPa
Moln: Övervägande molnigt
Sikt: 10 km
Molninformation: Övervägande molnigt 1280 m
2022/01/28 01:20 ESGG 280120Z 34011KT 9999 BKN042 03/M04 Q1007
Övervägande molnigt
Övervägande molnigt
  Visa detaljer för Göteborg (Landvetter)
Avstånd från stationen: N 28kmESGP - Göteborg (Säve)
Uppdaterad: 2022-01-28 02:20
 Vind från NNV
Vind: NNV 19 km/h
Temperatur: 5°C
Vindavkylning: 1°C
Daggpunkt: -3°C
Luftfuktighet: 57%
Barometer: 1008 hPa
Moln: Klart
Sikt: 10 km
2022/01/28 01:20 ESGP 280120Z AUTO 34010KT 9999 NCD 05/M03 Q1008
Klart
Klart
  Visa detaljer för Göteborg (Säve)
Avstånd från stationen: NO 419kmESSA - Stockholm (Arlanda)
Uppdaterad: 2022-01-28 02:20
 Vind från NNV
Vind: NNV 19 km/h
Temperatur: -1°C
Vindavkylning: -7°C
Daggpunkt: -1°C
Luftfuktighet: 100%
Barometer: 999 hPa
Summering: Light Snow
Moln: Övervägande molnigt
Sikt: 3 km
Molninformation: Övervägande molnigt 183 m
2022/01/28 01:20 ESSA 280120Z 33010KT 2900 -SN BKN006 M01/M01 Q0999 BECMG 5000 NSW BKN012
Light snow, Övervägande molnigt
Light snow
Övervägande molnigt
  Visa detaljer för Stockholm (Arlanda)
Avstånd från stationen: ONO 404kmESSB - Stockholm (Bromma)
Uppdaterad: 2022-01-28 02:20
 Vind från NV
Vind: NV 19 km/h
Temperatur: 1°C
Vindavkylning: -4°C
Daggpunkt: -1°C
Luftfuktighet: 87%
Barometer: 1000 hPa
Moln: Genommulet
Sikt: 10 km
Molninformation: Genommulet 274 m
2022/01/28 01:20 ESSB 280120Z AUTO 32010KT 9999 OVC009/// 01/M01 Q1000
Genommulet
Genommulet
  Visa detaljer för Stockholm (Bromma)
Avstånd från stationen: ONO 323kmESKN - Stockholm (Skavsta)
Uppdaterad: 2022-01-28 02:20
 Vind från NV
Vind: NV 26 km/h
Temperatur: 1°C
Vindavkylning: -4°C
Daggpunkt: 0°C
Luftfuktighet: 93%
Barometer: 1001 hPa
Summering: Light Snow
Moln: Övervägande molnigt
Sikt: 8 km
Molninformation: Övervägande molnigt 244 m
2022/01/28 01:20 ESKN 280120Z 31014KT 8000 -SN BKN008 01/M00 Q1001
Light snow, Övervägande molnigt
Light snow
Övervägande molnigt
  Visa detaljer för Stockholm (Skavsta)
Avstånd från stationen: SSO 238kmESMS - Malmö flygplats (Sturup)
Uppdaterad: 2022-01-28 02:20
 Vind från NV
Vind: NV 37 km/h
Temperatur: 5°C
Vindavkylning: -1°C
Daggpunkt: 0°C
Luftfuktighet: 70%
Barometer: 1005 hPa
Summering: Klart
Sikt: mer än 10 km
2022/01/28 01:20 ESMS 280120Z 31020KT CAVOK 05/00 Q1005
Klart
Klart
  Visa detaljer för Malmö flygplats (Sturup)
Avstånd från stationen: O 382kmESSV - Visby flygplats
Uppdaterad: 2022-01-28 02:20
 Vind från N
Vind: N 44 km/h
Temperatur: 2°C
Vindavkylning: -5°C
Daggpunkt: 1°C
Luftfuktighet: 93%
Barometer: 996 hPa
Summering: Lätt regn
Moln: Genommulet
Sikt: 10 km
Molninformation: Delvis molnigt 244 m
Övervägande molnigt 274 m
Genommulet 457 m
2022/01/28 01:20 ESSV 280120Z AUTO 35024KT 9999 -RA SCT008/// BKN009/// OVC015/// 02/01 Q0996 RESG
Lätt regn, Genommulet
Lätt regn
Genommulet
  Visa detaljer för Visby flygplats
Avstånd från stationen: NNO 92kmESGT - Trollhättan
Uppdaterad: 2022-01-28 02:20
 Vind från N
Vind: N 19 km/h
Temperatur: 3°C
Vindavkylning: -2°C
Daggpunkt: -3°C
Luftfuktighet: 65%
Barometer: 1008 hPa
Moln: Klart
Sikt: 10 km
2022/01/28 01:20 ESGT 280120Z AUTO 36010KT 9999 NCD 03/M03 Q1008
Klart
Klart
  Visa detaljer för Trollhättan
Avstånd från stationen: ONO 129kmESGJ - Jönköpings flygplats
Uppdaterad: 2022-01-28 02:20
 Vind från NNV
Vind: NNV 20 km/h
Temperatur: 1°C
Vindavkylning: -4°C
Daggpunkt: 0°C
Luftfuktighet: 93%
Barometer: 1004 hPa
Moln: Övervägande molnigt
Sikt: 10 km
Molninformation: Några få moln 518 m
Övervägande molnigt 1737 m
2022/01/28 01:20 ESGJ 280120Z 34011KT 9999 FEW017 BKN057 01/00 Q1004
Övervägande molnigt
Övervägande molnigt
  Visa detaljer för Jönköpings flygplats
Avstånd från stationen: NNO 229kmESOK - Karlstad
Uppdaterad: 2022-01-28 02:20
 Vind från NNV
Vind: NNV 24 km/h
Temperatur: 3°C
Vindavkylning: -2°C
Daggpunkt: -2°C
Luftfuktighet: 70%
Barometer: 1007 hPa
Moln: Några få moln
Sikt: 10 km
Molninformation: Några få moln 1890 m
2022/01/28 01:20 ESOK 280120Z AUTO 33013KT 9999 FEW062/// 03/M02 Q1007
Några få moln
Några få moln
  Visa detaljer för Karlstad
Avstånd från stationen: N 643kmESNZ - Östersund (Frösön)
Uppdaterad: 2022-01-28 02:20
 Vind från VNV
Vind: VNV 31 km/h
Temperatur: -2°C
Vindavkylning: -9°C
Daggpunkt: -5°C
Luftfuktighet: 80%
Barometer: 1004 hPa
Moln: Övervägande molnigt
Sikt: 10 km
Molninformation: Delvis molnigt 914 m
Övervägande molnigt 2621 m
2022/01/28 01:20 ESNZ 280120Z AUTO 30017KT 9999 SCT030/// BKN086/// M02/M05 Q1004 RESHUP
Övervägande molnigt
Övervägande molnigt
  Visa detaljer för Östersund (Frösön)
Avstånd från stationen: SSO 216kmEKCH - Köpenhamn (Kastrup)
Uppdaterad: 2022-01-28 02:20
 Vind från NV
Vind: NV 33 km/h
Temperatur: 5°C
Vindavkylning: 0°C
Daggpunkt: 0°C
Luftfuktighet: 70%
Barometer: 1008 hPa
Moln: Klart
Sikt: 10 km
2022/01/28 01:20 EKCH 280120Z AUTO 32018KT 9999 NCD 05/M00 Q1008 NOSIG
Klart
Klart
  Visa detaljer för Köpenhamn (Kastrup)
Avstånd från stationen: SV 263kmEKBI - Billund Airport
Uppdaterad: 2022-01-28 02:20
 Vind från NV
Vind: NV 39 km/h
Vindby: 65 km/h
Temperatur: 4°C
Vindavkylning: -2°C
Daggpunkt: -2°C
Luftfuktighet: 65%
Barometer: 1015 hPa
Moln: Klart
Sikt: 10 km
2022/01/28 01:20 EKBI 280120Z AUTO 31021G35KT 280V340 9999 NCD 04/M02 Q1015
Klart
Klart
  Visa detaljer för Billund Airport
Avstånd från stationen: N 302kmENGM - Oslo (Gardermoen)
Uppdaterad: 2022-01-28 02:20
 Vind från N
Vind: N 19 km/h
Temperatur: 2°C
Vindavkylning: -2°C
Daggpunkt: -6°C
Luftfuktighet: 56%
Barometer: 1010 hPa
Summering: Klart
Sikt: mer än 10 km
2022/01/28 01:20 ENGM 280120Z 36010KT CAVOK 02/M06 Q1010
Klart
Klart
  Visa detaljer för Oslo (Gardermoen)
Avstånd från stationen: NO 540kmEFMA - Mariehamn / Åland
Uppdaterad: 2022-01-28 02:20
 Vind från N
Vind: N 22 km/h
Vindby: 43 km/h
Temperatur: 1°C
Vindavkylning: -4°C
Daggpunkt: -1°C
Luftfuktighet: 87%
Barometer: 997 hPa
Moln: Övervägande molnigt
Sikt: 10 km
Molninformation: Övervägande molnigt 366 m
2022/01/28 01:20 EFMA 280120Z AUTO 35012G23KT 320V020 9999 BKN012 01/M01 Q0997
Övervägande molnigt
Övervägande molnigt
  Visa detaljer för Mariehamn / Åland
Avstånd från stationen: S 558kmEDDT - Berlin (Tegel), Germany
Uppdaterad: 2020-11-09 07:50
Ej aktuell
 Vind från O
Vind: O 11 km/h
Temperatur: 6°C
Vindavkylning: 4°C
Daggpunkt: 5°C
Luftfuktighet: 93%
Barometer: 1027 hPa
Summering: Dimmigt
Moln: Genommulet
Sikt: 3 km
Molninformation: Genommulet 91 m
2020/11/09 06:50 EDDT 090650Z 09006KT 050V120 3000 BR OVC003 06/05 Q1027
Dimmigt, Genommulet
Dimmigt
Genommulet
  Visa detaljer för Berlin (Tegel), Germany
Avstånd från stationen: SV 737kmEHAM - Amsterdam (Schiphol)
Uppdaterad: 2022-01-28 02:25
 Vind från NV
Vind: NV 20 km/h
Temperatur: 6°C
Vindavkylning: 2°C
Daggpunkt: 3°C
Luftfuktighet: 81%
Barometer: 1030 hPa
Moln: Några få moln
Sikt: 10 km
Molninformation: Några få moln 762 m
2022/01/28 01:25 EHAM 280125Z 31011KT 9999 FEW025 06/03 Q1030 NOSIG
Några få moln
Några få moln
  Visa detaljer för Amsterdam (Schiphol)
Avstånd från stationen: ONO 808kmEFHK - Helsingfors (Vantaa)
Uppdaterad: 2022-01-28 02:20
 Vind från NNO
Vind: NNO 15 km/h
Temperatur: 0°C
Vindavkylning: -4°C
Daggpunkt: 0°C
Luftfuktighet: 100%
Barometer: 991 hPa
Summering: Light Snow
Moln: Övervägande molnigt
Sikt: 5 km
Molninformation: Övervägande molnigt 152 m
Övervägande molnigt 274 m
2022/01/28 01:20 EFHK 280120Z 02008KT 4500 -SN BKN005 BKN009 00/M00 Q0991 BECMG 6000
Light snow, Övervägande molnigt
Light snow
Övervägande molnigt
  Visa detaljer för Helsingfors (Vantaa)
Avstånd från stationen: SSV 537kmEDDW - Bremen
Uppdaterad: 2022-01-28 02:20
 Vind från VNV
Vind: VNV 28 km/h
Temperatur: 5°C
Vindavkylning: 1°C
Daggpunkt: 1°C
Luftfuktighet: 76%
Barometer: 1022 hPa
Moln: Övervägande molnigt
Sikt: 10 km
Molninformation: Delvis molnigt 792 m
Övervägande molnigt 1463 m
2022/01/28 01:20 EDDW 280120Z 30015KT 9999 SCT026 BKN048 05/01 Q1022
Övervägande molnigt
Övervägande molnigt
  Visa detaljer för Bremen
Avstånd från stationen: SSV 861kmEDDF - Frankfurt am Main
Uppdaterad: 2022-01-28 02:20
 Vind från V
Vind: V 17 km/h
Temperatur: 4°C
Vindavkylning: 0°C
Daggpunkt: 3°C
Luftfuktighet: 93%
Barometer: 1029 hPa
Summering: Lätt regn, Showers
Moln: Delvis molnigt
Sikt: 10 km
Molninformation: Några få moln 244 m
Delvis molnigt 549 m
2022/01/28 01:20 EDDF 280120Z 28009KT 240V310 9999 -SHRA FEW008 SCT018CB 04/03 Q1029 NOSIG
Lätt regn, Showers, Delvis molnigt
Lätt regn
Showers
Delvis molnigt
  Visa detaljer för Frankfurt am Main
Avstånd från stationen: SV 880kmEBBR - Bryssel international
Uppdaterad: 2022-01-28 02:20
 Vind från V
Vind: V 11 km/h
Temperatur: 5°C
Vindavkylning: 2°C
Daggpunkt: 3°C
Luftfuktighet: 87%
Barometer: 1032 hPa
Summering: Klart
Sikt: mer än 10 km
2022/01/28 01:20 EBBR 280120Z 26006KT CAVOK 05/03 Q1032 NOSIG
Klart
Klart
  Visa detaljer för Bryssel international
Avstånd från stationen: SV 738kmEHAM - Amsterdam (Schiphol)
Uppdaterad: 2022-01-28 02:25
 Vind från NV
Vind: NV 20 km/h
Temperatur: 6°C
Vindavkylning: 2°C
Daggpunkt: 3°C
Luftfuktighet: 81%
Barometer: 1030 hPa
Moln: Några få moln
Sikt: 10 km
Molninformation: Några få moln 762 m
2022/01/28 01:25 EHAM 280125Z 31011KT 9999 FEW025 06/03 Q1030 NOSIG
Några få moln
Några få moln
  Visa detaljer för Amsterdam (Schiphol)
Avstånd från stationen: SV 1044kmEGLL - London (Heathrow)
Uppdaterad: 2022-01-28 02:20
 Vind från SV
Vind: SV 2 km/h
Temperatur: 3°C
Daggpunkt: 1°C
Luftfuktighet: 87%
Barometer: 1035 hPa
Moln: Klart
Sikt: 10 km
2022/01/28 01:20 EGLL 280120Z AUTO 23001KT 9999 NCD 03/01 Q1035
Klart
Klart
  Visa detaljer för London (Heathrow)
Avstånd från stationen: SV 1132kmLFPG - Paris (Charles de Gaulle)
Uppdaterad: 2022-01-28 02:30
 Vind från NV
Vind: NV 7 km/h
Temperatur: 6°C
Vindavkylning: 4°C
Daggpunkt: 6°C
Luftfuktighet: 100%
Barometer: 1034 hPa
Summering: Dimma
Sikt: 0 km
2022/01/28 01:30 LFPG 280130Z 32004KT 0350 R27L/0350N R09R/0375N R26R/0450N R08L/0450N R26L/0450D R08R/0375N R27R/0325N R09L/0400N FG VV/// 06/06 Q1034 NOSIG
Dimma
Dimma
  Visa detaljer för Paris (Charles de Gaulle)
Avstånd från stationen: SSV 1142kmLSZH - Zürich Airport
Uppdaterad: 2022-01-28 02:20
 Vind från S
Vind: S 9 km/h
Temperatur: 0°C
Vindavkylning: -3°C
Daggpunkt: 0°C
Luftfuktighet: 100%
Barometer: 1032 hPa
Moln: Övervägande molnigt
Sikt: 7 km
Molninformation: Övervägande molnigt 183 m
2022/01/28 01:20 LSZH 280120Z AUTO 18005KT 7000 BKN006 00/M00 Q1032 NOSIG
Övervägande molnigt
Övervägande molnigt
  Visa detaljer för Zürich Airport
Avstånd från stationen: S 1749kmLIRF - Rome Airport (Fiumicino - Leonardo da Vinci)
Uppdaterad: 2022-01-28 02:20
 Vind från O
Vind: O 7 km/h
Temperatur: 5°C
Vindavkylning: 3°C
Daggpunkt: 3°C
Luftfuktighet: 87%
Barometer: 1027 hPa
Summering: Klart
Sikt: mer än 10 km
2022/01/28 01:20 LIRF 280120Z 10004KT CAVOK 05/03 Q1027 NOSIG
Klart
Klart
  Visa detaljer för Rome Airport (Fiumicino - Leonardo da Vinci)
Avstånd från stationen: SO 2679kmLTAI - Antalya
Uppdaterad: 2022-01-28 02:20
 Vind från NNV
Vind: NNV 11 km/h
Temperatur: 1°C
Vindavkylning: -2°C
Daggpunkt: -9°C
Luftfuktighet: 48%
Barometer: 1020 hPa
Summering: Klart
Sikt: mer än 10 km
2022/01/28 01:20 LTAI 280120Z 33006KT CAVOK 01/M09 Q1020 NOSIG
Klart
Klart
  Visa detaljer för Antalya
Avstånd från stationen: VSV 6074kmKJFK - New Your (JFK)
Uppdaterad: 2022-01-28 01:51
 Vind från SV
Vind: SV 19 km/h
Temperatur: -2°C
Vindavkylning: -8°C
Daggpunkt: -9°C
Luftfuktighet: 59%
Barometer: 1025.7 hPa
Moln: Övervägande molnigt
Sikt: 16 km
Molninformation: Några få moln 3658 m
Övervägande molnigt 7620 m
2022/01/28 00:51 KJFK 280051Z 22010KT 10SM FEW120 BKN250 M02/M09 A3029 RMK AO2 SLP256 T10171089
Övervägande molnigt
Övervägande molnigt
  Visa detaljer för New Your (JFK)
Avstånd från stationen: VSV 8848kmKLAX - Los Angeles International Airport
Uppdaterad: 2022-01-28 01:53
 Vind från VSV
Vind: VSV 15 km/h
Temperatur: 15°C
Daggpunkt: 10°C
Luftfuktighet: 72%
Barometer: 1021 hPa
Moln: Några få moln
Sikt: 16 km
Molninformation: Några få moln 30 m
Några få moln 7620 m
2022/01/28 00:53 KLAX 280053Z 25008KT 10SM FEW001 FEW250 15/10 A3015 RMK AO2 SLP210 FG BNK W-NW T01500100
Några få moln
Några få moln
  Visa detaljer för Los Angeles International Airport
Avstånd från stationen: SO 4968kmOMDB - Dubai International Airport
Uppdaterad: 2022-01-28 02:00
 Vind från S
Vind: S 7 km/h
Temperatur: 18°C
Daggpunkt: 14°C
Luftfuktighet: 78%
Barometer: 1015 hPa
Moln: Delvis molnigt
Sikt: 6 km
2022/01/28 01:00 OMDB 280100Z 19004KT 6000 NSC 18/14 Q1015 NOSIG
Delvis molnigt
Delvis molnigt
  Visa detaljer för Dubai International Airport
Avstånd från stationen: OSO 8570kmRJTT - Tokyo International Airport
Uppdaterad: 2022-01-28 02:00
 Vind från N
Vind: N 11 km/h
Temperatur: 7°C
Vindavkylning: 5°C
Daggpunkt: -5°C
Luftfuktighet: 42%
Barometer: 1016 hPa
Moln: Övervägande molnigt
Sikt: 10 km
Molninformation: Några få moln 914 m
Övervägande molnigt 1524 m
2022/01/28 01:00 RJTT 280100Z 36006KT 9999 FEW030 BKN050 07/M05 Q1016 NOSIG
Övervägande molnigt
Övervägande molnigt
  Visa detaljer för Tokyo International Airport
Avstånd från stationen: OSO 7125kmZBAA - Peking (Beijing Capital)
Uppdaterad: 2022-01-28 02:30
 Vind från NO
Vind: NO 14 km/h
Temperatur: -3°C
Vindavkylning: -8°C
Daggpunkt: -17°C
Luftfuktighet: 33%
Barometer: 1034 hPa
Summering: Klart
Sikt: mer än 10 km
2022/01/28 01:30 ZBAA 280130Z 04004MPS CAVOK M03/M17 Q1034 NOSIG
Klart
Klart
  Visa detaljer för Peking (Beijing Capital)
VÄDER KURIOSA -  Weather TermsWatch - A watch is used when the risk of a hazardous weather or hydrologic event has increased significantly, but its occurrence, location or timing is still uncertain. It is intended to provide enough lead time so those who need to set their plans in motion can do so. A watch means that hazardous weather is possible. People should have a plan of action in case a storm threatens and they should listen for later information and possible warnings especially when planning travel or outdoor activities.